Wardle, United Kingdom
Current Conditions -  °F | °C
As of 12:50 AM on Monday 24 Nov 2014 (Local Time) from EGCC Reporting Station
Broken Clouds Broken Clouds  
Wind Chill: 34°   Ceiling: 3200
Heat Index: 37°   Visibility: 6mi
Dew Point: 37°   Wind: 5mph
Humidity: 100%   Direction: 200°SSW
Pressure: 30.18"   Gusts: NA
Location:  53.65°N, 2.13°W
Report Text: EGCC 240050Z AUTO 20004KT 9999 SCT026 BKN032 BKN041 03/03 Q1022
Loading
Personal Weather Stations






























Interactive Weather Map New forecast layout! Learn more

10-Day Weather Forecast

Advertisements
Track Severe Weather on mobile